createdAt,value
2022-11-24T00:00:55.886Z,1.67
2022-11-24T00:03:23.909Z,2.10
2022-11-24T00:05:51.983Z,2.40
2022-11-24T00:08:20.046Z,1.70
2022-11-24T00:10:47.935Z,2.20
2022-11-24T00:13:15.837Z,2.30
2022-11-24T00:15:45.222Z,2.23
2022-11-24T00:18:13.148Z,2.00
2022-11-24T00:20:41.041Z,2.33
2022-11-24T00:23:09.036Z,2.20
2022-11-24T00:25:36.933Z,2.30
2022-11-24T00:28:04.989Z,2.57
2022-11-24T00:30:34.927Z,2.27
2022-11-24T00:33:04.306Z,2.17
2022-11-24T00:35:32.252Z,2.10
2022-11-24T00:38:00.164Z,1.90
2022-11-24T00:40:33.585Z,2.43
2022-11-24T00:43:03.710Z,1.73
2022-11-24T00:45:31.622Z,2.50
2022-11-24T00:47:59.481Z,2.20
2022-11-24T00:50:28.841Z,2.63
2022-11-24T00:52:56.748Z,2.47
2022-11-24T00:55:24.645Z,2.13
2022-11-24T00:57:52.589Z,1.80
2022-11-24T01:00:20.697Z,1.90
2022-11-24T01:02:48.753Z,2.13
2022-11-24T01:05:16.742Z,1.60
2022-11-24T01:07:46.129Z,1.97
2022-11-24T01:10:14.044Z,2.30
2022-11-24T01:12:41.942Z,2.40
2022-11-24T01:15:10.313Z,2.00
2022-11-24T01:17:38.288Z,2.00
2022-11-24T01:20:07.127Z,2.27
2022-11-24T01:22:35.055Z,2.17
2022-11-24T01:25:04.617Z,2.03
2022-11-24T01:27:32.488Z,1.90
2022-11-24T01:30:00.399Z,1.93
2022-11-24T01:32:28.355Z,1.93
2022-11-24T01:34:56.338Z,2.63
2022-11-24T01:37:24.241Z,2.10
2022-11-24T01:39:52.147Z,2.53
2022-11-24T01:42:21.633Z,2.23
2022-11-24T01:44:50.282Z,2.00
2022-11-24T01:47:28.556Z,2.47
2022-11-24T01:49:59.013Z,2.10
2022-11-24T01:52:30.323Z,2.10
2022-11-24T01:55:01.274Z,2.40
2022-11-24T01:57:33.011Z,2.43
2022-11-24T02:00:05.263Z,2.20
2022-11-24T02:02:33.284Z,2.30
2022-11-24T02:05:07.241Z,2.10
2022-11-24T02:07:36.295Z,2.10
2022-11-24T02:10:06.369Z,1.87
2022-11-24T02:12:36.254Z,2.97
2022-11-24T02:15:04.260Z,2.43
2022-11-24T02:17:32.211Z,2.27
2022-11-24T02:20:02.123Z,1.90
2022-11-24T02:22:35.031Z,2.33
2022-11-24T02:25:11.708Z,2.20
2022-11-24T02:27:41.183Z,2.83
2022-11-24T02:30:09.704Z,2.17
2022-11-24T02:32:40.423Z,2.20
2022-11-24T02:35:09.265Z,2.20
2022-11-24T02:37:37.146Z,2.03
2022-11-24T02:40:05.533Z,1.97
2022-11-24T02:42:35.998Z,1.93
2022-11-24T02:45:06.273Z,2.20
2022-11-24T02:47:34.195Z,2.00
2022-11-24T02:50:02.116Z,1.80
2022-11-24T02:52:30.033Z,2.10
2022-11-24T02:54:57.957Z,2.10
2022-11-24T02:57:26.018Z,2.10
2022-11-24T02:59:53.945Z,2.10
2022-11-24T03:02:23.264Z,2.03
2022-11-24T03:04:51.201Z,2.33
2022-11-24T03:07:19.344Z,2.63
2022-11-24T03:09:47.279Z,2.23
2022-11-24T03:12:15.280Z,2.50
2022-11-24T03:14:43.165Z,2.20
2022-11-24T03:17:11.088Z,2.40
2022-11-24T03:19:40.497Z,2.50
2022-11-24T03:22:08.472Z,2.97
2022-11-24T03:24:36.580Z,2.33
2022-11-24T03:27:04.808Z,2.17
2022-11-24T03:29:32.892Z,2.67
2022-11-24T03:32:00.840Z,2.50
2022-11-24T03:34:28.716Z,2.63
2022-11-24T03:36:58.447Z,2.80
2022-11-24T03:39:26.391Z,3.10
2022-11-24T03:41:54.268Z,2.80
2022-11-24T03:44:22.436Z,3.10
2022-11-24T03:46:53.329Z,3.10
2022-11-24T03:49:21.243Z,3.33
2022-11-24T03:51:49.176Z,2.97
2022-11-24T03:54:18.439Z,2.57
2022-11-24T03:56:46.397Z,4.07
2022-11-24T03:59:14.417Z,3.33
2022-11-24T04:01:42.344Z,3.57
2022-11-24T04:04:11.718Z,2.80
2022-11-24T04:06:39.824Z,3.37
2022-11-24T04:09:07.974Z,3.43
2022-11-24T04:11:54.628Z,3.50
2022-11-24T04:14:22.530Z,3.83
2022-11-24T04:16:50.445Z,3.20
2022-11-24T04:19:18.503Z,3.30
2022-11-24T04:21:46.390Z,3.17
2022-11-24T04:24:14.758Z,3.73
2022-11-24T04:26:44.079Z,3.37
2022-11-24T04:29:12.153Z,3.50
2022-11-24T04:31:40.141Z,2.80
2022-11-24T04:34:08.088Z,3.37
2022-11-24T04:36:35.985Z,3.37
2022-11-24T04:39:19.697Z,3.40
2022-11-24T04:41:53.388Z,3.43
2022-11-24T04:44:21.315Z,3.40
2022-11-24T04:46:49.367Z,3.47
2022-11-24T04:49:17.348Z,3.67
2022-11-24T04:51:45.263Z,3.53
2022-11-24T04:54:14.291Z,3.40
2022-11-24T04:56:42.711Z,3.90
2022-11-24T04:59:14.877Z,3.50
2022-11-24T05:01:43.069Z,3.23
2022-11-24T05:04:11.762Z,3.53
2022-11-24T05:06:39.769Z,3.83
2022-11-24T05:09:08.546Z,3.10
2022-11-24T05:11:35.472Z,3.17
2022-11-24T05:14:03.412Z,3.53
2022-11-24T05:16:32.790Z,3.20
2022-11-24T05:19:00.749Z,4.63
2022-11-24T05:21:29.196Z,3.10
2022-11-24T05:23:57.187Z,3.80
2022-11-24T05:26:25.105Z,3.60
2022-11-24T05:28:53.014Z,3.57
2022-11-24T05:31:21.045Z,3.30
2022-11-24T05:33:50.396Z,3.53
2022-11-24T05:36:32.146Z,3.60
2022-11-24T05:39:00.117Z,3.43
2022-11-24T05:41:28.267Z,3.50
2022-11-24T05:43:56.145Z,3.50
2022-11-24T05:46:24.033Z,3.43
2022-11-24T05:48:53.376Z,2.93
2022-11-24T05:51:21.264Z,3.90
2022-11-24T05:53:49.133Z,2.90
2022-11-24T05:56:17.059Z,3.73
2022-11-24T05:58:45.212Z,3.60
2022-11-24T06:01:13.111Z,3.40
2022-11-24T06:03:40.992Z,3.40
2022-11-24T06:06:10.349Z,3.67
2022-11-24T06:08:38.245Z,3.33
2022-11-24T06:11:18.588Z,3.67
2022-11-24T06:13:48.272Z,4.10
2022-11-24T06:16:16.768Z,3.50
2022-11-24T06:18:44.670Z,3.90
2022-11-24T06:21:13.995Z,4.30
2022-11-24T06:23:42.096Z,4.07
2022-11-24T06:26:10.442Z,4.73
2022-11-24T06:28:38.345Z,3.83
2022-11-24T06:31:06.881Z,4.27
2022-11-24T06:33:35.741Z,3.60
2022-11-24T06:36:04.947Z,4.03
2022-11-24T06:38:36.210Z,3.77
2022-11-24T06:41:06.468Z,3.70
2022-11-24T06:43:36.595Z,4.00
2022-11-24T06:46:05.293Z,4.17
2022-11-24T06:48:33.217Z,3.90
2022-11-24T06:51:01.487Z,4.20
2022-11-24T06:53:31.611Z,4.20
2022-11-24T06:56:02.124Z,4.13
2022-11-24T06:58:30.057Z,4.57
2022-11-24T07:00:58.115Z,4.77
2022-11-24T07:03:26.099Z,4.07
2022-11-24T07:05:57.638Z,3.90
2022-11-24T07:08:26.106Z,3.57
2022-11-24T07:10:54.045Z,3.90
2022-11-24T07:13:23.439Z,3.90
2022-11-24T07:15:51.307Z,4.83
2022-11-24T07:18:19.416Z,3.47
2022-11-24T07:20:47.336Z,4.33
2022-11-24T07:23:15.281Z,3.90
2022-11-24T07:25:43.172Z,3.83
2022-11-24T07:28:11.124Z,4.23
2022-11-24T07:30:40.593Z,3.97
2022-11-24T07:33:08.577Z,3.77
2022-11-24T07:35:36.455Z,4.13
2022-11-24T07:38:05.069Z,3.80
2022-11-24T07:40:33.081Z,3.97
2022-11-24T07:43:02.408Z,3.83
2022-11-24T07:45:30.401Z,4.33
2022-11-24T07:47:59.713Z,4.10
2022-11-24T07:50:27.723Z,3.93
2022-11-24T07:52:55.609Z,3.97
2022-11-24T07:55:23.764Z,3.70
2022-11-24T07:57:51.649Z,3.47
2022-11-24T08:00:19.925Z,4.20
2022-11-24T08:02:47.834Z,3.83
2022-11-24T08:05:17.231Z,3.60
2022-11-24T08:07:45.535Z,3.70
2022-11-24T08:10:13.516Z,3.33
2022-11-24T08:12:43.822Z,4.10
2022-11-24T08:15:12.663Z,4.10
2022-11-24T08:17:40.689Z,3.80
2022-11-24T08:20:10.175Z,4.27
2022-11-24T08:22:39.548Z,3.97
2022-11-24T08:25:08.443Z,3.33
2022-11-24T08:27:36.373Z,3.93
2022-11-24T08:30:04.332Z,3.70
2022-11-24T08:32:32.220Z,3.53
2022-11-24T08:35:13.396Z,4.10
2022-11-24T08:37:43.408Z,3.90
2022-11-24T08:40:12.880Z,3.43
2022-11-24T08:42:40.966Z,3.27
2022-11-24T08:45:20.554Z,3.50
2022-11-24T08:47:53.150Z,3.50
2022-11-24T08:50:21.076Z,3.43
2022-11-24T08:52:50.428Z,3.23
2022-11-24T08:55:18.347Z,3.30
2022-11-24T08:57:46.241Z,3.43
2022-11-24T09:00:22.157Z,3.13
2022-11-24T09:02:59.693Z,3.20
2022-11-24T09:05:53.054Z,3.67
2022-11-24T09:08:16.911Z,3.80
2022-11-24T09:10:44.829Z,3.30
2022-11-24T09:13:12.719Z,3.27
2022-11-24T09:15:40.712Z,2.90
2022-11-24T09:18:08.584Z,3.90
2022-11-24T09:20:36.567Z,3.13
2022-11-24T09:23:04.449Z,2.93
2022-11-24T09:25:33.891Z,3.40
2022-11-24T09:28:01.819Z,3.60
2022-11-24T09:30:29.918Z,3.60
2022-11-24T09:32:58.364Z,3.60
2022-11-24T09:35:27.036Z,3.33
2022-11-24T09:37:54.919Z,3.70
2022-11-24T09:40:23.774Z,2.47
2022-11-24T09:42:57.116Z,3.40
2022-11-24T09:46:04.025Z,3.40
2022-11-24T09:48:27.384Z,3.13
2022-11-24T09:50:55.481Z,3.03
2022-11-24T09:53:30.200Z,2.97
2022-11-24T09:56:00.938Z,2.73
2022-11-24T09:58:38.735Z,2.90
2022-11-24T10:01:09.507Z,3.53
2022-11-24T10:03:39.475Z,3.17
2022-11-24T10:06:22.099Z,3.23
2022-11-24T10:09:04.987Z,2.90
2022-11-24T10:11:38.066Z,3.70
2022-11-24T10:14:27.623Z,3.37
2022-11-24T10:17:03.296Z,4.60
2022-11-24T10:19:37.807Z,3.63
2022-11-24T10:22:19.572Z,3.43
2022-11-24T10:25:09.282Z,2.83
2022-11-24T10:27:39.883Z,3.60
2022-11-24T10:30:17.158Z,2.77
2022-11-24T10:32:48.419Z,3.27
2022-11-24T10:35:19.534Z,2.60
2022-11-24T10:37:53.257Z,3.33
2022-11-24T10:40:55.364Z,3.33
2022-11-24T10:43:15.009Z,3.27
2022-11-24T10:45:44.264Z,3.10
2022-11-24T10:48:18.902Z,3.83
2022-11-24T10:50:46.824Z,3.57
2022-11-24T10:53:19.116Z,4.30
2022-11-24T10:56:05.806Z,3.37
2022-11-24T10:58:38.050Z,3.17
2022-11-24T11:01:25.369Z,2.87
2022-11-24T11:03:55.205Z,3.70
2022-11-24T11:06:24.486Z,3.10
2022-11-24T11:09:17.553Z,4.27
2022-11-24T11:11:48.312Z,3.83
2022-11-24T11:14:30.817Z,3.23
2022-11-24T11:17:00.602Z,3.43
2022-11-24T11:19:54.134Z,3.50
2022-11-24T11:22:25.673Z,3.23
2022-11-24T11:25:08.776Z,3.80
2022-11-24T11:27:37.049Z,3.37
2022-11-24T11:36:11.995Z,2.80
2022-11-24T11:38:41.098Z,3.33
2022-11-24T11:41:13.274Z,3.67
2022-11-24T11:43:41.961Z,3.50
2022-11-24T11:46:13.545Z,3.17
2022-11-24T11:48:46.664Z,3.40
2022-11-24T11:51:28.237Z,3.53
2022-11-24T11:54:01.012Z,2.90
2022-11-24T11:56:31.394Z,3.27
2022-11-24T11:59:41.861Z,3.57
2022-11-24T12:02:25.175Z,2.73
2022-11-24T12:04:58.468Z,3.17
2022-11-24T12:07:42.978Z,2.90
2022-11-24T12:10:18.417Z,3.27
2022-11-24T12:13:11.770Z,3.10
2022-11-24T12:15:42.650Z,2.57
2022-11-24T12:18:48.673Z,3.47
2022-11-24T12:21:22.901Z,3.27
2022-11-24T12:24:02.149Z,3.07
2022-11-24T12:26:36.461Z,2.47
2022-11-24T12:29:19.329Z,3.80
2022-11-24T12:31:54.003Z,4.03
2022-11-24T12:34:28.458Z,2.83
2022-11-24T12:37:13.242Z,3.10
2022-11-24T12:39:46.910Z,2.67
2022-11-24T12:42:23.469Z,3.50
2022-11-24T12:45:07.241Z,2.83
2022-11-24T12:47:44.931Z,2.90
2022-11-24T12:50:14.653Z,2.47
2022-11-24T12:52:52.897Z,2.93
2022-11-24T12:55:24.415Z,2.57
2022-11-24T12:57:56.178Z,2.80
2022-11-24T13:00:25.171Z,3.17
2022-11-24T13:03:06.123Z,2.77
2022-11-24T13:05:40.370Z,2.97
2022-11-24T13:08:09.745Z,3.20
2022-11-24T13:10:56.233Z,2.97
2022-11-24T13:13:47.733Z,3.30
2022-11-24T13:19:10.304Z,2.70
2022-11-24T13:21:57.841Z,2.90
2022-11-24T13:24:30.775Z,2.60
2022-11-24T13:27:27.198Z,3.13
2022-11-24T13:29:55.481Z,3.30
2022-11-24T13:33:02.872Z,3.10
2022-11-24T13:35:31.084Z,3.07
2022-11-24T13:37:59.377Z,3.10
2022-11-24T13:41:12.968Z,2.47
2022-11-24T13:43:32.957Z,3.17
2022-11-24T13:46:00.946Z,3.10
2022-11-24T13:48:54.645Z,2.70
2022-11-24T13:51:26.101Z,2.53
2022-11-24T13:53:55.574Z,2.70
2022-11-24T13:56:28.132Z,2.40
2022-11-24T13:58:58.143Z,3.50
2022-11-24T14:01:26.719Z,3.90
2022-11-24T14:07:02.386Z,3.33
2022-11-24T14:09:37.630Z,3.07
2022-11-24T14:12:15.217Z,3.20
2022-11-24T14:14:47.950Z,2.67
2022-11-24T14:17:18.677Z,3.27
2022-11-24T14:19:48.063Z,3.33
2022-11-24T14:22:18.992Z,4.17
2022-11-24T14:24:48.035Z,2.93
2022-11-24T14:27:18.654Z,2.80
2022-11-24T14:29:57.032Z,3.17
2022-11-24T14:32:25.119Z,3.37
2022-11-24T14:34:54.736Z,3.07
2022-11-24T14:37:23.028Z,3.10
2022-11-24T14:39:50.956Z,2.90
2022-11-24T14:42:21.959Z,2.80
2022-11-24T14:44:52.864Z,5.87
2022-11-24T14:47:30.172Z,3.50
2022-11-24T14:50:07.897Z,3.47
2022-11-24T14:52:36.509Z,3.43
2022-11-24T14:55:21.730Z,3.67
2022-11-24T14:57:52.085Z,3.77
2022-11-24T15:00:27.133Z,5.30
2022-11-24T15:02:56.766Z,5.10
2022-11-24T15:05:25.864Z,4.40
2022-11-24T15:08:02.034Z,4.67
2022-11-24T15:10:33.885Z,4.00
2022-11-24T15:13:05.541Z,4.50
2022-11-24T15:15:35.401Z,4.13
2022-11-24T15:18:04.659Z,4.53
2022-11-24T15:20:35.267Z,5.47
2022-11-24T15:23:23.100Z,13.33
2022-11-24T15:25:51.592Z,8.37
2022-11-24T15:28:25.619Z,9.10
2022-11-24T15:30:54.728Z,6.57
2022-11-24T15:33:23.979Z,7.00
2022-11-24T15:35:51.898Z,7.47
2022-11-24T15:38:19.898Z,5.17
2022-11-24T15:40:49.034Z,6.13
2022-11-24T15:43:23.957Z,6.00
2022-11-24T15:45:51.913Z,7.57
2022-11-24T15:48:19.974Z,6.73
2022-11-24T15:50:48.244Z,8.17
2022-11-24T15:53:18.557Z,5.83
2022-11-24T15:55:46.486Z,5.53
2022-11-24T15:58:15.251Z,5.07
2022-11-24T16:00:45.038Z,4.90
2022-11-24T16:03:44.949Z,4.10
2022-11-24T16:06:00.933Z,4.90
2022-11-24T16:08:28.835Z,4.33
2022-11-24T16:10:57.117Z,4.17
2022-11-24T16:13:25.125Z,3.83
2022-11-24T16:15:54.461Z,4.63
2022-11-24T16:18:22.469Z,4.83
2022-11-24T16:20:51.312Z,4.47
2022-11-24T16:23:19.327Z,5.33
2022-11-24T16:25:47.292Z,7.13
2022-11-24T16:28:15.193Z,5.37
2022-11-24T16:30:43.131Z,6.37
2022-11-24T16:33:12.436Z,4.93
2022-11-24T16:35:40.592Z,4.23
2022-11-24T16:38:10.582Z,4.47
2022-11-24T16:40:38.592Z,4.57
2022-11-24T16:43:06.553Z,5.63
2022-11-24T16:45:34.762Z,4.17
2022-11-24T16:48:02.721Z,5.70
2022-11-24T16:50:32.117Z,5.20
2022-11-24T16:53:00.258Z,4.53
2022-11-24T16:55:28.216Z,4.70
2022-11-24T16:57:56.192Z,4.57
2022-11-24T17:00:24.423Z,4.13
2022-11-24T17:02:52.517Z,4.60
2022-11-24T17:05:20.500Z,4.80
2022-11-24T17:07:49.878Z,11.37
2022-11-24T17:10:17.896Z,6.27
2022-11-24T17:12:45.985Z,10.20
2022-11-24T17:15:32.665Z,6.23
2022-11-24T17:18:23.465Z,5.63
2022-11-24T17:20:50.649Z,4.27
2022-11-24T17:23:20.129Z,4.47
2022-11-24T17:25:48.470Z,7.33
2022-11-24T17:28:16.376Z,6.47
2022-11-24T17:30:44.365Z,5.07
2022-11-24T17:33:12.450Z,4.10
2022-11-24T17:35:40.397Z,5.10
2022-11-24T17:38:08.291Z,3.80
2022-11-24T17:40:37.608Z,4.00
2022-11-24T17:43:05.588Z,3.93
2022-11-24T17:45:33.582Z,2.93
2022-11-24T17:48:01.836Z,2.80
2022-11-24T17:50:29.782Z,3.53
2022-11-24T17:52:57.673Z,3.30
2022-11-24T17:55:25.560Z,3.27
2022-11-24T17:57:54.903Z,3.43
2022-11-24T18:00:23.183Z,4.00
2022-11-24T18:02:51.128Z,3.90
2022-11-24T18:05:19.156Z,4.37
2022-11-24T18:07:47.197Z,5.40
2022-11-24T18:10:15.264Z,4.60
2022-11-24T18:12:43.187Z,8.37
2022-11-24T18:15:13.616Z,5.40
2022-11-24T18:17:41.629Z,4.83
2022-11-24T18:20:10.263Z,5.67
2022-11-24T18:23:04.125Z,5.80
2022-11-24T18:25:26.237Z,5.17
2022-11-24T18:27:54.186Z,4.17
2022-11-24T18:30:23.483Z,4.83
2022-11-24T18:32:51.495Z,4.53
2022-11-24T18:35:19.420Z,6.13
2022-11-24T18:37:47.334Z,9.30
2022-11-24T18:40:15.579Z,7.60
2022-11-24T18:42:43.513Z,7.20
2022-11-24T18:45:12.252Z,6.37
2022-11-24T18:47:41.536Z,6.13
2022-11-24T18:50:10.337Z,6.00
2022-11-24T18:52:38.237Z,3.87
2022-11-24T18:55:06.631Z,4.30
2022-11-24T18:57:34.574Z,4.37
2022-11-24T19:00:02.766Z,5.10
2022-11-24T19:02:30.862Z,5.83
2022-11-24T19:05:00.346Z,8.63
2022-11-24T19:07:28.300Z,5.73
2022-11-24T19:09:56.224Z,5.40
2022-11-24T19:12:24.152Z,7.10
2022-11-24T19:14:52.066Z,6.53
2022-11-24T19:17:20.032Z,8.03
2022-11-24T19:19:48.576Z,6.37
2022-11-24T19:22:17.865Z,9.53
2022-11-24T19:24:46.644Z,6.80
2022-11-24T19:27:16.524Z,6.13
2022-11-24T19:29:44.713Z,5.60
2022-11-24T19:32:12.655Z,8.10
2022-11-24T19:34:40.668Z,11.50
2022-11-24T19:37:08.548Z,7.87
2022-11-24T19:39:37.816Z,8.23
2022-11-24T19:42:05.898Z,11.07
2022-11-24T19:44:34.170Z,12.50
2022-11-24T19:47:02.229Z,6.93
2022-11-24T19:49:30.200Z,8.77
2022-11-24T19:51:58.109Z,8.77
2022-11-24T19:54:26.185Z,8.50
2022-11-24T19:56:56.564Z,6.47
2022-11-24T19:59:26.395Z,8.80
2022-11-24T20:01:55.074Z,9.33
2022-11-24T20:04:23.380Z,6.60
2022-11-24T20:06:51.540Z,7.03
2022-11-24T20:09:19.998Z,6.93
2022-11-24T20:11:48.664Z,6.20
2022-11-24T20:14:19.212Z,5.70
2022-11-24T20:16:48.534Z,5.93
2022-11-24T20:19:17.496Z,7.57
2022-11-24T20:21:47.863Z,7.27
2022-11-24T20:24:17.446Z,5.50
2022-11-24T20:26:47.414Z,5.33
2022-11-24T20:29:17.291Z,5.10
2022-11-24T20:31:46.824Z,5.20
2022-11-24T20:34:15.156Z,5.30
2022-11-24T20:36:45.797Z,5.53
2022-11-24T20:39:15.797Z,5.50
2022-11-24T20:41:43.807Z,5.37
2022-11-24T20:44:15.155Z,5.63
2022-11-24T20:46:46.008Z,5.87
2022-11-24T20:49:16.459Z,5.30
2022-11-24T20:51:47.081Z,5.10
2022-11-24T20:54:16.449Z,4.77
2022-11-24T20:56:46.498Z,4.93
2022-11-24T20:59:15.444Z,5.67
2022-11-24T21:01:46.097Z,6.47
2022-11-24T21:04:16.310Z,7.83
2022-11-24T21:06:44.227Z,5.43
2022-11-24T21:09:12.393Z,6.30
2022-11-24T21:11:40.911Z,6.60
2022-11-24T21:14:09.614Z,6.40
2022-11-24T21:16:38.903Z,5.77
2022-11-24T21:19:11.339Z,6.17
2022-11-24T21:21:39.760Z,5.87
2022-11-24T21:24:11.111Z,5.63
2022-11-24T21:26:40.409Z,6.07
2022-11-24T21:29:09.154Z,6.30
2022-11-24T21:31:38.408Z,5.47
2022-11-24T21:34:08.728Z,5.70
2022-11-24T21:36:40.710Z,5.40
2022-11-24T21:39:08.803Z,5.67
2022-11-24T21:41:36.712Z,5.83
2022-11-24T21:44:04.772Z,5.80
2022-11-24T21:46:39.065Z,5.87
2022-11-24T21:49:13.268Z,5.87
2022-11-24T21:51:41.187Z,5.53
2022-11-24T21:54:09.654Z,5.47
2022-11-24T21:56:37.535Z,6.10
2022-11-24T21:59:05.431Z,6.50
2022-11-24T22:01:33.442Z,6.60
2022-11-24T22:04:01.414Z,5.33
2022-11-24T22:06:30.716Z,6.03
2022-11-24T22:08:58.601Z,5.93
2022-11-24T22:11:26.619Z,6.37
2022-11-24T22:13:54.725Z,6.57
2022-11-24T22:16:24.667Z,7.30
2022-11-24T22:18:52.843Z,6.90
2022-11-24T22:21:22.739Z,6.27
2022-11-24T22:23:53.684Z,5.90
2022-11-24T22:26:23.199Z,6.07
2022-11-24T22:28:51.931Z,6.67
2022-11-24T22:31:21.656Z,6.70
2022-11-24T22:33:50.536Z,7.07
2022-11-24T22:36:20.727Z,6.07
2022-11-24T22:38:49.356Z,7.73
2022-11-24T22:41:19.196Z,6.80
2022-11-24T22:43:48.720Z,7.93
2022-11-24T22:46:17.973Z,7.57
2022-11-24T22:48:46.788Z,8.77
2022-11-24T22:51:15.849Z,8.30
2022-11-24T22:53:47.427Z,8.03
2022-11-24T22:56:15.747Z,8.67
2022-11-24T22:58:45.269Z,8.97
2022-11-24T23:01:14.696Z,7.57
2022-11-24T23:03:42.850Z,8.47
2022-11-24T23:06:13.160Z,8.77
2022-11-24T23:08:41.271Z,7.63
2022-11-24T23:11:13.372Z,7.43
2022-11-24T23:13:41.321Z,8.00
2022-11-24T23:16:12.731Z,7.80
2022-11-24T23:18:41.217Z,8.50
2022-11-24T23:21:11.388Z,7.60
2022-11-24T23:23:39.397Z,7.43
2022-11-24T23:26:09.877Z,7.73
2022-11-24T23:28:37.992Z,8.20
2022-11-24T23:31:08.454Z,8.60
2022-11-24T23:33:38.002Z,9.13
2022-11-24T23:36:07.340Z,8.40
2022-11-24T23:38:35.397Z,7.03
2022-11-24T23:41:05.161Z,8.93
2022-11-24T23:43:33.126Z,7.70
2022-11-24T23:46:04.267Z,8.63
2022-11-24T23:48:32.196Z,7.87
2022-11-24T23:51:06.448Z,9.17
2022-11-24T23:53:34.916Z,8.73
2022-11-24T23:56:03.162Z,8.13
2022-11-24T23:58:31.537Z,8.80
